Time;durP1;ratioP1;P1;durP2;ratioP2;P2;SDS_P1;SDS_P2;PMS_P1;PMS_P2;Temp;Humidity;BMP_temperature;BMP_pressure;BME280_temperature;BME280_humidity;BME280_pressure;Samples;Min_cycle;Max_cycle;Signal;HPM_P1;HPM_P2
2022/04/29 00:02:06;;;;;;;;;;;13.80;63.80;;;;;;5087783;27;20327;-83
2022/04/29 00:04:33;;;;;;;;;;;13.80;63.90;;;;;;5095015;28;19928;-83
2022/04/29 00:07:00;;;;;;;;;;;13.70;63.90;;;;;;5101319;27;19928;-81
2022/04/29 00:09:27;;;;;;;;;;;13.70;64.10;;;;;;5099536;27;19992;-81
2022/04/29 00:11:54;;;;;;;;;;;13.60;63.50;;;;;;5092382;28;19935;-82
2022/04/29 00:14:21;;;;;;;;;;;13.70;64.20;;;;;;5098424;27;19936;-83
2022/04/29 00:16:48;;;;;;;;;;;13.60;64.20;;;;;;5097636;27;20020;-83
2022/04/29 00:19:14;;;;;;;;;;;13.60;64.30;;;;;;5088244;28;20027;-84
2022/04/29 00:21:42;;;;;;;;;;;13.50;64.40;;;;;;5102649;28;19935;-83
2022/04/29 00:24:09;;;;;;;;;;;13.50;64.50;;;;;;5109926;27;19927;-81
2022/04/29 00:26:37;;;;;;;;;;;13.40;64.50;;;;;;5098006;28;19928;-83
2022/04/29 00:29:03;;;;;;;;;;;13.40;64.60;;;;;;5101522;27;20027;-83
2022/04/29 00:31:30;;;;;;;;;;;13.30;64.80;;;;;;5092630;27;20400;-81
2022/04/29 00:33:56;;;;;;;;;;;13.30;64.80;;;;;;5096298;28;19934;-81
2022/04/29 00:36:23;;;;;;;;;;;13.30;65.00;;;;;;5087698;27;19938;-82
2022/04/29 00:38:51;;;;;;;;;;;13.20;65.00;;;;;;5097882;27;19924;-81
2022/04/29 00:41:18;;;;;;;;;;;13.20;65.10;;;;;;5092733;28;19935;-83
2022/04/29 00:43:44;;;;;;;;;;;13.10;65.10;;;;;;5092042;27;19980;-81
2022/04/29 00:46:11;;;;;;;;;;;13.10;65.20;;;;;;5087377;27;21005;-83
2022/04/29 00:48:38;;;;;;;;;;;13.20;65.40;;;;;;5091937;27;20392;-81
2022/04/29 00:51:05;;;;;;;;;;;13.00;65.40;;;;;;5091062;28;20097;-81
2022/04/29 00:53:31;;;;;;;;;;;13.00;65.50;;;;;;5100246;27;19935;-82
2022/04/29 00:55:59;;;;;;;;;;;13.00;65.70;;;;;;5091645;28;19928;-83
2022/04/29 00:58:29;;;;;;;;;;;12.90;65.80;;;;;;5093657;27;19976;-83
2022/04/29 01:00:56;;;;;;;;;;;12.90;65.90;;;;;;5091721;27;19935;-82
2022/04/29 01:03:23;;;;;;;;;;;12.90;66.10;;;;;;5094871;28;19928;-81
2022/04/29 01:05:50;;;;;;;;;;;12.80;66.20;;;;;;5093327;28;19928;-84
2022/04/29 01:08:16;;;;;;;;;;;12.80;66.40;;;;;;5095553;27;19943;-83
2022/04/29 01:10:45;;;;;;;;;;;12.80;66.40;;;;;;5095571;27;20414;-82
2022/04/29 01:13:13;;;;;;;;;;;12.80;66.60;;;;;;5088406;28;20044;-81
2022/04/29 01:15:40;;;;;;;;;;;12.70;67.40;;;;;;5097697;27;20243;-81
2022/04/29 01:18:08;;;;;;;;;;;12.70;66.90;;;;;;5095914;28;19935;-81
2022/04/29 01:20:36;;;;;;;;;;;12.70;66.90;;;;;;5093436;28;19928;-83
2022/04/29 01:23:06;;;;;;;;;;;12.60;66.90;;;;;;5091469;28;19936;-81
2022/04/29 01:25:33;;;;;;;;;;;12.60;67.10;;;;;;5088096;28;20395;-83
2022/04/29 01:28:00;;;;;;;;;;;12.60;67.20;;;;;;5088457;28;20651;-82
2022/04/29 01:30:26;;;;;;;;;;;12.60;67.30;;;;;;5102224;27;20501;-81
2022/04/29 01:32:54;;;;;;;;;;;12.50;67.40;;;;;;5093502;28;19984;-82
2022/04/29 01:35:20;;;;;;;;;;;12.50;67.50;;;;;;5095081;28;20022;-83
2022/04/29 01:37:47;;;;;;;;;;;12.40;67.50;;;;;;5099938;27;19932;-81
2022/04/29 01:40:16;;;;;;;;;;;12.40;67.60;;;;;;5097692;27;19988;-82
2022/04/29 01:42:43;;;;;;;;;;;12.40;67.60;;;;;;5086625;28;19932;-83
2022/04/29 01:45:09;;;;;;;;;;;12.40;67.80;;;;;;5108611;27;20349;-82
2022/04/29 01:47:36;;;;;;;;;;;12.30;67.80;;;;;;5103556;27;20775;-83
2022/04/29 01:50:03;;;;;;;;;;;12.30;67.80;;;;;;5097733;28;19953;-83
2022/04/29 01:52:30;;;;;;;;;;;12.30;68.10;;;;;;5091299;28;19954;-83
2022/04/29 01:54:56;;;;;;;;;;;12.40;68.30;;;;;;5097217;27;19935;-81
2022/04/29 01:57:24;;;;;;;;;;;12.20;68.30;;;;;;5093949;27;19987;-83
2022/04/29 01:59:51;;;;;;;;;;;12.20;68.40;;;;;;5091588;27;19939;-82
2022/04/29 02:02:19;;;;;;;;;;;12.20;68.60;;;;;;5087206;28;19928;-82
2022/04/29 02:04:46;;;;;;;;;;;12.10;67.90;;;;;;5090403;28;20531;-83
2022/04/29 02:07:12;;;;;;;;;;;12.10;68.80;;;;;;5097218;27;19932;-83
2022/04/29 02:09:39;;;;;;;;;;;12.10;68.80;;;;;;5094263;27;20006;-82
2022/04/29 02:12:06;;;;;;;;;;;12.10;68.90;;;;;;5090266;28;19928;-83
2022/04/29 02:14:34;;;;;;;;;;;12.00;69.00;;;;;;5087967;28;20391;-83
2022/04/29 02:17:02;;;;;;;;;;;12.00;69.10;;;;;;5097230;28;20816;-84
2022/04/29 02:19:28;;;;;;;;;;;11.90;69.20;;;;;;5090133;28;20706;-83
2022/04/29 02:21:55;;;;;;;;;;;11.90;69.20;;;;;;5083082;28;19928;-82
2022/04/29 02:24:21;;;;;;;;;;;11.90;69.40;;;;;;5098687;27;19943;-83
2022/04/29 02:26:48;;;;;;;;;;;11.90;69.50;;;;;;5088765;27;20396;-83
2022/04/29 02:29:15;;;;;;;;;;;11.90;69.60;;;;;;5102413;27;19932;-81
2022/04/29 02:31:42;;;;;;;;;;;11.80;69.70;;;;;;5099660;27;19935;-83
2022/04/29 02:34:09;;;;;;;;;;;11.80;69.70;;;;;;5092948;28;20301;-82
2022/04/29 02:36:36;;;;;;;;;;;11.80;69.90;;;;;;5095662;28;20742;-83
2022/04/29 02:39:03;;;;;;;;;;;11.70;69.90;;;;;;5103031;27;20346;-82
2022/04/29 02:41:29;;;;;;;;;;;11.80;70.10;;;;;;5098050;28;20668;-83
2022/04/29 02:43:56;;;;;;;;;;;11.70;70.10;;;;;;5086746;28;19928;-81
2022/04/29 02:46:22;;;;;;;;;;;11.70;70.30;;;;;;5112229;27;19931;-82
2022/04/29 02:48:50;;;;;;;;;;;11.70;70.50;;;;;;5097696;27;19961;-83
2022/04/29 02:51:17;;;;;;;;;;;11.70;70.70;;;;;;5093856;28;19928;-83
2022/04/29 02:53:43;;;;;;;;;;;11.60;70.70;;;;;;5102798;28;20576;-82
2022/04/29 02:56:10;;;;;;;;;;;11.60;70.90;;;;;;5088145;28;19935;-82
2022/04/29 02:58:37;;;;;;;;;;;11.60;71.00;;;;;;5093275;28;19934;-81
2022/04/29 03:01:03;;;;;;;;;;;11.50;71.00;;;;;;5092844;28;20483;-83
2022/04/29 03:03:30;;;;;;;;;;;11.50;71.10;;;;;;5088454;28;20005;-82
2022/04/29 03:05:59;;;;;;;;;;;11.50;71.10;;;;;;5091309;28;19928;-83
2022/04/29 03:08:25;;;;;;;;;;;11.50;71.20;;;;;;5093745;28;19927;-83
2022/04/29 03:10:52;;;;;;;;;;;11.40;71.30;;;;;;5093653;28;20417;-83
2022/04/29 03:13:18;;;;;;;;;;;11.40;71.40;;;;;;5098648;28;20335;-82
2022/04/29 03:15:45;;;;;;;;;;;11.40;71.50;;;;;;5096161;28;20721;-83
2022/04/29 03:18:22;;;;;;;;;;;11.40;71.50;;;;;;5081758;28;19935;-82
2022/04/29 03:20:50;;;;;;;;;;;11.30;71.70;;;;;;5078500;28;19932;-82
2022/04/29 03:23:18;;;;;;;;;;;11.30;71.60;;;;;;5081439;28;19928;-83
2022/04/29 03:25:45;;;;;;;;;;;11.30;71.70;;;;;;5095593;28;20035;-82
2022/04/29 03:28:12;;;;;;;;;;;11.30;71.70;;;;;;5078818;28;20007;-82
2022/04/29 03:30:38;;;;;;;;;;;11.30;71.80;;;;;;5091803;28;19923;-82
2022/04/29 03:33:06;;;;;;;;;;;11.30;71.80;;;;;;5100061;28;19928;-83
2022/04/29 03:35:33;;;;;;;;;;;11.20;71.90;;;;;;5097125;28;19935;-83
2022/04/29 03:37:59;;;;;;;;;;;11.20;71.90;;;;;;5088228;28;19935;-82
2022/04/29 03:40:27;;;;;;;;;;;11.20;72.00;;;;;;5099909;28;19976;-83
2022/04/29 03:42:54;;;;;;;;;;;11.10;72.00;;;;;;5099288;28;20042;-83
2022/04/29 03:45:21;;;;;;;;;;;11.10;72.00;;;;;;5097270;28;19927;-83
2022/04/29 03:47:48;;;;;;;;;;;11.10;72.10;;;;;;5088543;28;20363;-81
2022/04/29 03:50:15;;;;;;;;;;;11.10;72.10;;;;;;5082606;28;19939;-83
2022/04/29 03:52:47;;;;;;;;;;;11.10;72.10;;;;;;5077765;28;19929;-81
2022/04/29 03:55:17;;;;;;;;;;;11.10;72.20;;;;;;5087376;28;20022;-82
2022/04/29 03:57:45;;;;;;;;;;;11.00;72.20;;;;;;5077496;28;19936;-81
2022/04/29 04:00:13;;;;;;;;;;;11.00;72.20;;;;;;5086968;28;19936;-83
2022/04/29 04:02:40;;;;;;;;;;;11.00;72.30;;;;;;5094319;28;19931;-81
2022/04/29 04:05:07;;;;;;;;;;;10.90;72.30;;;;;;5092101;28;19954;-82
2022/04/29 04:07:33;;;;;;;;;;;10.90;72.30;;;;;;5094611;28;19935;-82
2022/04/29 04:10:00;;;;;;;;;;;10.90;72.40;;;;;;5098461;28;19939;-83
2022/04/29 04:12:27;;;;;;;;;;;10.90;72.40;;;;;;5097605;28;20549;-81
2022/04/29 04:14:59;;;;;;;;;;;10.90;72.50;;;;;;5090437;28;19935;-81
2022/04/29 04:17:25;;;;;;;;;;;10.90;72.60;;;;;;5083579;28;19928;-83
2022/04/29 04:19:52;;;;;;;;;;;10.80;72.50;;;;;;5082771;28;19928;-83
2022/04/29 04:22:19;;;;;;;;;;;10.80;72.60;;;;;;5081675;28;20384;-83
2022/04/29 04:24:45;;;;;;;;;;;10.80;72.60;;;;;;5083153;28;20023;-81
2022/04/29 04:27:12;;;;;;;;;;;10.80;72.70;;;;;;5083869;28;19928;-83
2022/04/29 04:29:38;;;;;;;;;;;10.70;72.70;;;;;;5082856;28;19932;-83
2022/04/29 04:32:07;;;;;;;;;;;10.60;72.70;;;;;;5090217;28;19980;-82
2022/04/29 04:34:52;;;;;;;;;;;10.70;72.80;;;;;;5097989;28;19989;-83
2022/04/29 04:37:19;;;;;;;;;;;10.70;72.90;;;;;;5086631;28;20377;-83
2022/04/29 04:39:45;;;;;;;;;;;10.70;72.90;;;;;;5099915;28;19927;-83
2022/04/29 04:42:12;;;;;;;;;;;10.60;73.00;;;;;;5091439;28;20009;-83
2022/04/29 04:44:39;;;;;;;;;;;10.60;73.10;;;;;;5093924;28;19935;-81
2022/04/29 04:47:07;;;;;;;;;;;10.50;73.00;;;;;;5096827;28;19927;-83
2022/04/29 04:49:33;;;;;;;;;;;10.60;73.10;;;;;;5094734;28;20396;-82
2022/04/29 04:52:00;;;;;;;;;;;10.60;73.20;;;;;;5093364;28;19936;-81
2022/04/29 04:54:27;;;;;;;;;;;10.50;73.30;;;;;;5101717;28;19988;-81
2022/04/29 04:56:53;;;;;;;;;;;10.90;73.50;;;;;;5091316;28;19981;-81
2022/04/29 04:59:20;;;;;;;;;;;10.50;73.30;;;;;;5100870;28;19928;-83
2022/04/29 05:01:46;;;;;;;;;;;10.50;73.40;;;;;;5097285;27;20050;-81
2022/04/29 05:04:14;;;;;;;;;;;10.50;73.40;;;;;;5101043;28;19928;-82
2022/04/29 05:06:41;;;;;;;;;;;10.50;73.50;;;;;;5096368;28;19931;-83
2022/04/29 05:09:07;;;;;;;;;;;10.40;73.50;;;;;;5106310;27;19927;-80
2022/04/29 05:11:34;;;;;;;;;;;10.40;73.60;;;;;;5100280;27;19932;-82
2022/04/29 05:14:01;;;;;;;;;;;10.40;73.70;;;;;;5098750;27;19927;-83
2022/04/29 05:16:27;;;;;;;;;;;10.30;73.70;;;;;;5097044;27;19985;-82
2022/04/29 05:18:54;;;;;;;;;;;10.40;73.80;;;;;;5096006;28;19981;-81
2022/04/29 05:21:22;;;;;;;;;;;10.30;73.80;;;;;;5087815;28;19981;-83
2022/04/29 05:23:48;;;;;;;;;;;10.30;73.80;;;;;;5091427;28;19981;-82
2022/04/29 05:26:15;;;;;;;;;;;10.40;73.90;;;;;;5094549;28;19941;-82
2022/04/29 05:28:41;;;;;;;;;;;10.30;73.90;;;;;;5089031;28;19928;-81
2022/04/29 05:31:08;;;;;;;;;;;10.30;74.00;;;;;;5099617;27;19923;-82
2022/04/29 05:33:35;;;;;;;;;;;10.30;74.10;;;;;;5100796;28;19939;-82
2022/04/29 05:36:02;;;;;;;;;;;10.30;74.00;;;;;;5094295;28;19974;-80
2022/04/29 05:42:14;;;;;;;;;;;10.30;74.10;;;;;;5090975;27;20439;-82
2022/04/29 05:44:01;;;;;;;;;;;10.30;74.20;;;;;;5096148;28;19935;-81
2022/04/29 05:46:27;;;;;;;;;;;10.30;74.20;;;;;;5088308;27;20032;-82
2022/04/29 05:48:54;;;;;;;;;;;10.30;74.20;;;;;;5094517;28;20592;-81
2022/04/29 05:51:20;;;;;;;;;;;10.30;74.30;;;;;;5089294;28;19981;-82
2022/04/29 05:53:48;;;;;;;;;;;10.20;74.30;;;;;;5093605;28;19932;-80
2022/04/29 05:56:15;;;;;;;;;;;10.30;74.40;;;;;;5092629;28;19932;-82
2022/04/29 05:58:41;;;;;;;;;;;10.30;74.50;;;;;;5093110;28;19928;-80
2022/04/29 06:01:08;;;;;;;;;;;10.30;74.60;;;;;;5087028;28;19936;-80
2022/04/29 06:03:34;;;;;;;;;;;10.30;74.60;;;;;;5097800;28;19932;-82
2022/04/29 06:06:01;;;;;;;;;;;10.30;74.60;;;;;;5093515;28;20022;-81
2022/04/29 06:08:27;;;;;;;;;;;10.30;74.70;;;;;;5085651;28;20338;-83
2022/04/29 06:10:55;;;;;;;;;;;10.30;74.70;;;;;;5090490;28;20060;-82
2022/04/29 06:13:22;;;;;;;;;;;10.30;74.70;;;;;;5093391;28;19928;-81
2022/04/29 06:15:48;;;;;;;;;;;10.30;74.70;;;;;;5093028;28;19928;-80
2022/04/29 06:18:15;;;;;;;;;;;10.30;74.70;;;;;;5088000;28;20026;-82
2022/04/29 06:20:42;;;;;;;;;;;10.30;74.80;;;;;;5083267;28;20366;-81
2022/04/29 06:23:08;;;;;;;;;;;10.30;74.70;;;;;;5093102;28;20780;-81
2022/04/29 06:25:35;;;;;;;;;;;10.30;74.70;;;;;;5088552;28;19928;-82
2022/04/29 06:28:02;;;;;;;;;;;10.30;74.70;;;;;;5090934;28;19957;-81
2022/04/29 06:30:29;;;;;;;;;;;10.30;74.70;;;;;;5086315;28;20993;-80
2022/04/29 06:32:55;;;;;;;;;;;10.40;74.80;;;;;;5081735;28;19940;-81
2022/04/29 06:35:22;;;;;;;;;;;10.40;74.80;;;;;;5086969;28;19977;-80
2022/04/29 06:37:49;;;;;;;;;;;10.30;74.80;;;;;;5090900;28;19928;-82
2022/04/29 06:40:15;;;;;;;;;;;10.30;74.90;;;;;;5076587;28;19990;-81
2022/04/29 06:42:46;;;;;;;;;;;10.40;74.90;;;;;;5082290;28;19985;-81
2022/04/29 06:45:14;;;;;;;;;;;10.30;74.90;;;;;;5078820;28;19928;-81
2022/04/29 06:47:41;;;;;;;;;;;10.40;75.00;;;;;;5089078;28;20026;-80
2022/04/29 06:50:10;;;;;;;;;;;10.40;75.00;;;;;;5087568;28;19932;-80
2022/04/29 06:52:36;;;;;;;;;;;10.40;75.00;;;;;;5098341;28;19935;-80
2022/04/29 06:55:03;;;;;;;;;;;10.40;75.00;;;;;;5097393;28;19928;-80
2022/04/29 06:57:30;;;;;;;;;;;10.40;75.10;;;;;;5096851;28;19931;-81
2022/04/29 06:59:57;;;;;;;;;;;10.40;75.10;;;;;;5088475;28;19928;-79
2022/04/29 07:02:25;;;;;;;;;;;10.40;75.20;;;;;;5075577;28;19928;-80
2022/04/29 07:04:53;;;;;;;;;;;10.40;75.30;;;;;;5076506;28;19935;-80
2022/04/29 07:07:19;;;;;;;;;;;10.50;75.40;;;;;;5077375;28;19986;-81
2022/04/29 07:09:46;;;;;;;;;;;10.40;75.40;;;;;;5079233;28;19928;-83
2022/04/29 07:12:12;;;;;;;;;;;10.40;75.40;;;;;;5078268;28;19989;-80
2022/04/29 07:14:39;;;;;;;;;;;10.40;75.40;;;;;;5086439;28;19928;-82
2022/04/29 07:17:07;;;;;;;;;;;10.50;75.40;;;;;;5079797;28;19932;-81
2022/04/29 07:19:37;;;;;;;;;;;10.50;75.50;;;;;;5083737;28;19928;-81
2022/04/29 07:22:03;;;;;;;;;;;10.50;75.60;;;;;;5081259;28;19928;-80
2022/04/29 07:24:30;;;;;;;;;;;10.50;75.70;;;;;;5085489;28;20024;-81
2022/04/29 07:26:56;;;;;;;;;;;10.50;75.80;;;;;;5087213;28;19931;-82
2022/04/29 07:29:23;;;;;;;;;;;10.50;75.90;;;;;;5090251;28;19962;-81
2022/04/29 07:31:50;;;;;;;;;;;10.50;76.00;;;;;;5085290;28;20611;-82
2022/04/29 07:34:16;;;;;;;;;;;10.50;75.90;;;;;;5094257;28;20693;-82
2022/04/29 07:42:12;;;;;;;;;;;10.60;76.20;;;;;;5084191;28;19985;-81
2022/04/29 07:44:39;;;;;;;;;;;10.70;76.40;;;;;;5090621;28;19932;-82
2022/04/29 07:47:07;;;;;;;;;;;10.70;76.40;;;;;;5086647;28;19989;-82
2022/04/29 07:49:34;;;;;;;;;;;10.80;76.40;;;;;;5074008;28;20053;-81
2022/04/29 07:52:02;;;;;;;;;;;10.80;76.20;;;;;;5074005;28;19928;-81
2022/04/29 07:54:28;;;;;;;;;;;10.80;76.10;;;;;;5079433;28;19973;-81
2022/04/29 07:56:55;;;;;;;;;;;10.80;75.90;;;;;;5073902;28;19928;-81
2022/04/29 07:59:21;;;;;;;;;;;10.90;75.80;;;;;;5084752;28;20387;-80
2022/04/29 08:01:48;;;;;;;;;;;10.90;75.70;;;;;;5095489;28;19981;-81
2022/04/29 08:04:15;;;;;;;;;;;11.00;75.70;;;;;;5099020;28;19932;-81
2022/04/29 08:06:41;;;;;;;;;;;11.00;75.60;;;;;;5099003;28;20409;-81
2022/04/29 08:09:09;;;;;;;;;;;11.00;75.50;;;;;;5098417;28;19939;-80
2022/04/29 08:11:35;;;;;;;;;;;11.00;75.50;;;;;;5088022;28;20588;-80
2022/04/29 08:14:06;;;;;;;;;;;11.10;75.60;;;;;;5096130;28;20328;-81
2022/04/29 08:16:34;;;;;;;;;;;11.10;75.60;;;;;;5085242;28;20400;-82
2022/04/29 08:19:01;;;;;;;;;;;11.20;75.50;;;;;;5096350;28;20415;-82
2022/04/29 08:21:28;;;;;;;;;;;11.30;75.50;;;;;;5085035;28;20612;-80
2022/04/29 08:23:54;;;;;;;;;;;11.30;75.40;;;;;;5087179;28;19954;-81
2022/04/29 08:26:22;;;;;;;;;;;11.30;75.20;;;;;;5085432;28;19935;-81
2022/04/29 08:28:49;;;;;;;;;;;11.40;75.00;;;;;;5088284;28;19932;-80
2022/04/29 08:31:15;;;;;;;;;;;11.50;74.70;;;;;;5092569;28;19988;-80
2022/04/29 08:33:42;;;;;;;;;;;11.50;74.50;;;;;;5101161;28;19934;-81
2022/04/29 08:36:08;;;;;;;;;;;11.60;74.40;;;;;;5098741;28;19924;-81
2022/04/29 08:38:35;;;;;;;;;;;11.60;74.20;;;;;;5097233;28;20383;-82
2022/04/29 08:41:03;;;;;;;;;;;11.60;74.10;;;;;;5096341;28;19992;-80
2022/04/29 08:43:32;;;;;;;;;;;11.70;74.00;;;;;;5093133;28;19928;-80
2022/04/29 08:45:59;;;;;;;;;;;11.80;73.90;;;;;;5090595;28;20459;-81
2022/04/29 08:48:29;;;;;;;;;;;11.80;73.70;;;;;;5091612;28;19936;-81
2022/04/29 08:50:55;;;;;;;;;;;11.90;73.60;;;;;;5090407;28;19939;-82
2022/04/29 08:53:22;;;;;;;;;;;12.00;73.40;;;;;;5095439;28;19928;-82
2022/04/29 08:58:38;;;;;;;;;;;12.00;73.30;;;;;;5035732;28;19939;-70
2022/04/29 09:01:05;;;;;;;;;;;12.10;73.30;;;;;;5040378;28;19951;-69
2022/04/29 09:03:32;;;;;;;;;;;12.10;73.00;;;;;;5038987;28;19937;-69
2022/04/29 09:05:58;;;;;;;;;;;12.20;73.00;;;;;;5038839;28;19982;-69
2022/04/29 09:08:25;;;;;;;;;;;12.20;73.70;;;;;;5044739;28;20158;-69
2022/04/29 09:10:52;;;;;;;;;;;12.30;72.90;;;;;;5044200;28;20542;-69
2022/04/29 09:13:20;;;;;;;;;;;12.30;72.80;;;;;;5039355;28;19936;-69
2022/04/29 09:15:49;;;;;;;;;;;12.40;72.70;;;;;;5032050;28;19933;-70
2022/04/29 09:18:27;;;;;;;;;;;12.40;72.60;;;;;;5036880;28;19933;-70
2022/04/29 09:20:54;;;;;;;;;;;12.50;72.40;;;;;;5041201;28;19937;-69
2022/04/29 09:23:26;;;;;;;;;;;12.50;72.20;;;;;;5035154;28;19925;-70
2022/04/29 09:25:52;;;;;;;;;;;12.60;72.10;;;;;;5033438;28;19933;-69
2022/04/29 09:28:19;;;;;;;;;;;12.70;71.90;;;;;;5035170;28;19929;-69
2022/04/29 09:30:46;;;;;;;;;;;12.70;71.60;;;;;;5038784;28;19929;-70
2022/04/29 09:33:19;;;;;;;;;;;12.80;71.50;;;;;;5037916;28;20403;-70
2022/04/29 09:35:47;;;;;;;;;;;12.90;71.40;;;;;;5035436;28;19939;-69
2022/04/29 09:40:58;;;;;;;;;;;13.00;70.80;;;;;;5029262;28;20356;-67
2022/04/29 09:43:32;;;;;;;;;;;13.10;70.70;;;;;;5030576;28;19929;-69
2022/04/29 09:46:19;;;;;;;;;;;13.20;70.60;;;;;;5037779;28;20609;-69
2022/04/29 09:48:56;;;;;;;;;;;13.20;70.10;;;;;;5032596;28;19933;-69
2022/04/29 09:51:39;;;;;;;;;;;13.30;69.80;;;;;;5034631;28;20459;-70
2022/04/29 09:54:09;;;;;;;;;;;13.40;69.60;;;;;;5039945;28;20289;-70
2022/04/29 09:56:36;;;;;;;;;;;13.50;69.10;;;;;;5037295;28;19925;-69
2022/04/29 09:59:03;;;;;;;;;;;13.60;68.80;;;;;;5038187;28;19982;-70
2022/04/29 10:01:29;;;;;;;;;;;13.70;68.60;;;;;;5037285;28;19931;-69
2022/04/29 10:03:58;;;;;;;;;;;13.70;68.40;;;;;;5029987;28;19959;-68
2022/04/29 10:06:26;;;;;;;;;;;13.80;68.10;;;;;;5036841;28;19933;-70
2022/04/29 10:08:53;;;;;;;;;;;13.90;67.70;;;;;;5034654;28;19933;-69
2022/04/29 10:11:22;;;;;;;;;;;13.90;67.40;;;;;;5038637;28;20489;-68
2022/04/29 10:13:49;;;;;;;;;;;14.00;67.10;;;;;;5038292;28;19933;-69
2022/04/29 10:16:16;;;;;;;;;;;14.00;66.80;;;;;;5038292;28;20659;-69
2022/04/29 10:21:36;;;;;;;;;;;14.10;66.40;;;;;;5036857;28;19960;-70
2022/04/29 10:24:03;;;;;;;;;;;14.10;66.30;;;;;;5036139;28;19939;-69
2022/04/29 10:26:31;;;;;;;;;;;14.20;66.30;;;;;;5039635;28;20012;-70
2022/04/29 10:28:57;;;;;;;;;;;14.20;66.00;;;;;;5039193;28;19929;-69
2022/04/29 10:31:24;;;;;;;;;;;14.30;65.90;;;;;;5035062;28;20416;-69
2022/04/29 10:33:51;;;;;;;;;;;14.30;65.60;;;;;;5040880;28;20339;-70
2022/04/29 10:36:22;;;;;;;;;;;14.40;65.10;;;;;;5038621;28;19935;-69
2022/04/29 10:38:59;;;;;;;;;;;14.40;64.70;;;;;;5040231;28;20375;-69
2022/04/29 10:41:26;;;;;;;;;;;14.50;64.70;;;;;;5036326;28;20023;-71
2022/04/29 10:44:05;;;;;;;;;;;14.60;64.40;;;;;;5037832;28;22391;-69
2022/04/29 10:46:32;;;;;;;;;;;14.60;64.40;;;;;;5040005;28;20393;-70
2022/04/29 10:49:18;;;;;;;;;;;14.60;64.40;;;;;;5038613;28;19933;-68
2022/04/29 10:51:49;;;;;;;;;;;14.70;64.00;;;;;;5035039;28;20653;-69
2022/04/29 10:54:37;;;;;;;;;;;14.80;63.80;;;;;;5038721;28;20404;-70
2022/04/29 10:57:06;;;;;;;;;;;14.90;63.70;;;;;;5032667;28;19935;-70
2022/04/29 10:59:47;;;;;;;;;;;14.90;62.80;;;;;;5034648;28;19933;-69
2022/04/29 11:02:22;;;;;;;;;;;15.00;62.80;;;;;;5031730;28;20388;-69
2022/04/29 11:04:49;;;;;;;;;;;15.00;62.60;;;;;;5035393;28;19935;-69
2022/04/29 11:07:35;;;;;;;;;;;15.10;62.30;;;;;;5036793;28;19933;-69
2022/04/29 11:10:04;;;;;;;;;;;15.10;62.00;;;;;;5030924;28;20041;-69
2022/04/29 11:12:31;;;;;;;;;;;15.20;61.60;;;;;;5037006;28;19939;-69
2022/04/29 11:15:10;;;;;;;;;;;15.30;61.70;;;;;;5035063;28;21034;-70
2022/04/29 11:17:38;;;;;;;;;;;15.30;61.50;;;;;;5054990;28;19928;-71
2022/04/29 11:20:17;;;;;;;;;;;15.30;61.00;;;;;;5057855;28;19995;-68
2022/04/29 11:25:55;;;;;;;;;;;15.50;60.60;;;;;;5046717;28;19936;-69
2022/04/29 11:28:21;;;;;;;;;;;15.50;60.40;;;;;;5056385;28;20410;-70
2022/04/29 11:30:49;;;;;;;;;;;15.60;60.10;;;;;;5052110;28;19928;-71
2022/04/29 11:33:21;;;;;;;;;;;15.70;59.90;;;;;;5063689;28;19928;-68
2022/04/29 11:35:51;;;;;;;;;;;15.80;59.90;;;;;;5063209;28;19928;-70
2022/04/29 11:38:17;;;;;;;;;;;15.90;59.70;;;;;;5058332;28;19937;-69
2022/04/29 11:40:44;;;;;;;;;;;16.00;59.30;;;;;;5058084;28;19981;-69
2022/04/29 11:43:12;;;;;;;;;;;16.10;59.20;;;;;;5063377;28;19963;-68
2022/04/29 11:45:40;;;;;;;;;;;16.10;58.90;;;;;;5058923;28;20015;-68
2022/04/29 11:48:08;;;;;;;;;;;16.20;58.60;;;;;;5056903;28;19940;-70
2022/04/29 11:50:35;;;;;;;;;;;16.30;58.50;;;;;;5061881;28;19932;-69
2022/04/29 11:53:08;;;;;;;;;;;16.30;58.30;;;;;;5063106;28;19929;-70
2022/04/29 11:55:35;;;;;;;;;;;16.40;58.20;;;;;;5052712;28;19946;-69
2022/04/29 11:58:02;;;;;;;;;;;16.50;58.10;;;;;;5055483;28;19936;-70
2022/04/29 12:00:31;;;;;;;;;;;16.60;57.80;;;;;;5055938;28;19928;-69
2022/04/29 12:02:59;;;;;;;;;;;16.70;57.80;;;;;;5061708;28;19931;-67
2022/04/29 12:05:26;;;;;;;;;;;16.70;57.50;;;;;;5058281;28;20530;-70
2022/04/29 12:07:53;;;;;;;;;;;16.80;57.50;;;;;;5063626;28;19928;-69
2022/04/29 12:10:20;;;;;;;;;;;16.90;57.20;;;;;;5054108;28;19933;-69
2022/04/29 12:12:47;;;;;;;;;;;16.90;57.00;;;;;;5057263;28;19933;-68
2022/04/29 12:15:17;;;;;;;;;;;17.00;57.00;;;;;;5052553;28;19932;-70
2022/04/29 12:17:45;;;;;;;;;;;17.00;56.60;;;;;;5054354;28;19933;-69
2022/04/29 12:20:16;;;;;;;;;;;17.10;56.30;;;;;;5057937;28;19951;-69
2022/04/29 12:22:42;;;;;;;;;;;17.20;57.00;;;;;;5059277;28;19928;-70
2022/04/29 12:25:23;;;;;;;;;;;17.20;56.30;;;;;;5056671;28;19933;-69
2022/04/29 12:28:04;;;;;;;;;;;17.30;56.20;;;;;;5059244;28;19928;-69
2022/04/29 12:36:07;;;;;;;;;;;17.40;55.70;;;;;;5060556;28;19939;-70
2022/04/29 12:38:35;;;;;;;;;;;17.40;55.70;;;;;;5059597;28;20766;-69
2022/04/29 12:41:13;;;;;;;;;;;17.40;55.40;;;;;;5062171;28;20011;-70
2022/04/29 12:43:43;;;;;;;;;;;17.40;55.10;;;;;;5055008;28;19936;-70
2022/04/29 12:46:13;;;;;;;;;;;17.50;55.40;;;;;;5053505;28;19931;-69
2022/04/29 12:48:47;;;;;;;;;;;17.50;55.70;;;;;;5056908;28;19928;-69
2022/04/29 12:51:22;;;;;;;;;;;17.50;55.20;;;;;;5064690;28;19934;-69
2022/04/29 12:53:49;;;;;;;;;;;17.60;54.90;;;;;;5058789;28;20396;-69
2022/04/29 12:56:22;;;;;;;;;;;17.70;55.00;;;;;;5052500;28;19932;-70
2022/04/29 12:58:49;;;;;;;;;;;17.80;55.10;;;;;;5057148;28;19982;-69
2022/04/29 13:01:15;;;;;;;;;;;17.80;54.90;;;;;;5050820;28;19933;-67
2022/04/29 13:03:48;;;;;;;;;;;17.80;54.80;;;;;;5058754;28;20355;-70
2022/04/29 13:06:17;;;;;;;;;;;18.00;55.40;;;;;;5058075;28;19939;-69
2022/04/29 13:08:44;;;;;;;;;;;18.00;54.60;;;;;;5052959;28;19944;-69
2022/04/29 13:11:15;;;;;;;;;;;18.00;54.60;;;;;;5057496;28;20714;-69
2022/04/29 13:13:41;;;;;;;;;;;18.10;54.70;;;;;;5052772;28;19937;-69
2022/04/29 13:16:08;;;;;;;;;;;18.10;54.60;;;;;;5052668;28;20292;-71
2022/04/29 13:18:34;;;;;;;;;;;18.10;54.50;;;;;;5059566;28;19940;-67
2022/04/29 13:21:06;;;;;;;;;;;18.20;54.50;;;;;;5061221;28;19932;-69
2022/04/29 13:23:34;;;;;;;;;;;18.20;54.40;;;;;;5060497;28;19936;-70
2022/04/29 13:26:02;;;;;;;;;;;18.20;54.40;;;;;;5055987;28;20657;-70
2022/04/29 13:28:29;;;;;;;;;;;18.20;54.40;;;;;;5061044;28;19924;-67
2022/04/29 13:30:56;;;;;;;;;;;18.30;54.50;;;;;;5055121;28;19943;-70
2022/04/29 13:33:22;;;;;;;;;;;18.30;54.20;;;;;;5060452;28;19929;-69
2022/04/29 13:35:49;;;;;;;;;;;18.30;53.60;;;;;;5062306;28;19932;-69
2022/04/29 13:38:17;;;;;;;;;;;18.40;53.40;;;;;;5061880;28;19933;-69
2022/04/29 13:40:45;;;;;;;;;;;18.50;53.50;;;;;;5054663;28;19928;-69
2022/04/29 13:43:12;;;;;;;;;;;18.50;53.60;;;;;;5061311;28;19928;-69
2022/04/29 13:45:39;;;;;;;;;;;18.60;53.60;;;;;;5049960;28;20023;-70
2022/04/29 13:48:06;;;;;;;;;;;18.70;53.50;;;;;;5059926;28;19932;-69
2022/04/29 13:50:33;;;;;;;;;;;18.70;53.30;;;;;;5052132;28;20577;-70
2022/04/29 13:53:08;;;;;;;;;;;18.80;53.10;;;;;;5056328;28;20753;-69
2022/04/29 13:55:35;;;;;;;;;;;18.80;53.10;;;;;;5055431;28;19965;-70
2022/04/29 13:58:03;;;;;;;;;;;18.80;52.40;;;;;;5054003;28;19932;-70
2022/04/29 14:00:30;;;;;;;;;;;18.80;52.90;;;;;;5051470;28;19936;-70
2022/04/29 14:02:56;;;;;;;;;;;18.80;52.70;;;;;;5053581;28;19929;-70
2022/04/29 14:05:24;;;;;;;;;;;18.80;52.70;;;;;;5054043;28;19935;-69
2022/04/29 14:07:51;;;;;;;;;;;18.90;52.70;;;;;;5060010;28;19929;-68
2022/04/29 14:10:19;;;;;;;;;;;18.80;52.80;;;;;;5050906;28;19983;-68
2022/04/29 14:12:45;;;;;;;;;;;18.90;52.70;;;;;;5053535;28;19937;-66
2022/04/29 14:15:13;;;;;;;;;;;18.90;52.80;;;;;;5050751;28;19932;-69
2022/04/29 14:17:40;;;;;;;;;;;18.90;52.80;;;;;;5051142;28;20400;-70
2022/04/29 14:20:07;;;;;;;;;;;18.90;52.80;;;;;;5056744;28;19928;-69
2022/04/29 14:22:34;;;;;;;;;;;18.90;52.90;;;;;;5060412;28;19929;-69
2022/04/29 14:25:02;;;;;;;;;;;18.90;53.00;;;;;;5052082;28;19935;-70
2022/04/29 14:27:29;;;;;;;;;;;18.90;52.90;;;;;;5059428;28;19928;-70
2022/04/29 14:29:55;;;;;;;;;;;18.90;52.80;;;;;;5050211;28;19947;-71
2022/04/29 14:32:23;;;;;;;;;;;18.90;52.80;;;;;;5053399;28;19928;-69
2022/04/29 14:34:50;;;;;;;;;;;19.00;52.80;;;;;;5054456;28;19928;-68
2022/04/29 14:37:17;;;;;;;;;;;18.90;52.70;;;;;;5059106;28;20712;-69
2022/04/29 14:39:43;;;;;;;;;;;19.00;52.90;;;;;;5051681;28;19932;-69
2022/04/29 14:42:11;;;;;;;;;;;19.00;53.00;;;;;;5061973;28;19929;-69
2022/04/29 14:44:37;;;;;;;;;;;19.00;52.80;;;;;;5055286;28;19933;-70
2022/04/29 14:47:05;;;;;;;;;;;19.00;52.80;;;;;;5056226;28;20296;-68